createdAt,value
2023-05-17T00:02:02.679Z,3.17
2023-05-17T00:04:34.368Z,3.08
2023-05-17T00:07:06.094Z,3.01
2023-05-17T00:09:37.836Z,3.22
2023-05-17T00:12:09.606Z,3.35
2023-05-17T00:14:41.288Z,3.33
2023-05-17T00:17:12.941Z,3.34
2023-05-17T00:19:44.612Z,3.59
2023-05-17T00:22:16.282Z,3.52
2023-05-17T00:24:47.921Z,3.63
2023-05-17T00:27:19.485Z,3.91
2023-05-17T00:29:51.089Z,3.85
2023-05-17T00:32:22.781Z,3.79
2023-05-17T00:34:55.527Z,3.74
2023-05-17T00:37:28.007Z,3.76
2023-05-17T00:39:59.784Z,4.14
2023-05-17T00:42:31.537Z,3.97
2023-05-17T00:45:03.388Z,3.74
2023-05-17T00:47:35.122Z,4.00
2023-05-17T00:50:07.718Z,4.18
2023-05-17T00:52:41.784Z,4.27
2023-05-17T00:55:13.396Z,4.32
2023-05-17T00:57:45.562Z,4.29
2023-05-17T01:00:17.258Z,3.97
2023-05-17T01:02:50.953Z,4.18
2023-05-17T01:05:22.640Z,4.17
2023-05-17T01:07:54.293Z,4.12
2023-05-17T01:10:50.605Z,4.21
2023-05-17T01:14:00.519Z,4.48
2023-05-17T01:16:40.577Z,4.35
2023-05-17T01:19:48.262Z,4.36
2023-05-17T01:22:41.679Z,4.36
2023-05-17T01:25:27.017Z,4.54
2023-05-17T01:28:01.515Z,4.34
2023-05-17T01:30:34.077Z,4.30
2023-05-17T01:33:07.145Z,4.38
2023-05-17T01:35:38.793Z,4.27
2023-05-17T01:38:10.656Z,4.42
2023-05-17T01:41:05.444Z,3.81
2023-05-17T01:44:00.187Z,3.86
2023-05-17T01:46:43.522Z,4.01
2023-05-17T01:49:25.580Z,3.93
2023-05-17T01:52:10.322Z,3.78
2023-05-17T01:55:05.594Z,3.55
2023-05-17T01:57:40.302Z,3.77
2023-05-17T02:00:13.828Z,3.55
2023-05-17T02:02:50.309Z,3.57
2023-05-17T02:05:22.042Z,3.39
2023-05-17T02:07:53.690Z,4.18
2023-05-17T02:10:25.336Z,3.82
2023-05-17T02:12:57.072Z,3.51
2023-05-17T02:15:29.093Z,3.66
2023-05-17T02:18:01.062Z,3.52
2023-05-17T02:20:32.803Z,3.91
2023-05-17T02:23:04.540Z,3.74
2023-05-17T02:25:36.221Z,3.53
2023-05-17T02:28:07.891Z,3.55
2023-05-17T02:30:40.221Z,3.57
2023-05-17T02:33:12.073Z,3.65
2023-05-17T02:35:43.750Z,3.38
2023-05-17T02:38:15.438Z,3.22
2023-05-17T02:40:47.094Z,3.18
2023-05-17T02:43:18.754Z,3.31
2023-05-17T02:45:50.341Z,3.19
2023-05-17T02:48:22.056Z,3.13
2023-05-17T02:50:53.747Z,2.98
2023-05-17T02:53:25.422Z,2.86
2023-05-17T02:55:57.187Z,2.85
2023-05-17T02:58:28.939Z,2.85
2023-05-17T03:01:00.603Z,2.81
2023-05-17T03:03:33.208Z,2.79
2023-05-17T03:06:06.325Z,2.66
2023-05-17T03:08:38.207Z,2.72
2023-05-17T03:11:09.933Z,2.83
2023-05-17T03:13:41.722Z,2.95
2023-05-17T03:16:13.394Z,2.86
2023-05-17T03:18:45.183Z,2.73
2023-05-17T03:21:17.960Z,2.56
2023-05-17T03:23:49.682Z,2.61
2023-05-17T03:26:21.458Z,2.65
2023-05-17T03:28:56.567Z,2.87
2023-05-17T03:31:28.704Z,3.57
2023-05-17T03:34:00.573Z,12.57
2023-05-17T03:36:35.223Z,2.48
2023-05-17T03:39:07.095Z,2.64
2023-05-17T03:41:39.597Z,2.64
2023-05-17T03:44:11.224Z,3.15
2023-05-17T03:46:43.028Z,2.61
2023-05-17T03:49:14.898Z,2.81
2023-05-17T03:51:46.729Z,2.44
2023-05-17T03:54:18.496Z,2.55
2023-05-17T03:56:51.056Z,2.52
2023-05-17T03:59:23.672Z,2.46
2023-05-17T04:01:55.798Z,2.51
2023-05-17T04:04:28.116Z,2.36
2023-05-17T04:07:00.965Z,2.33
2023-05-17T04:09:32.680Z,2.43
2023-05-17T04:12:05.054Z,2.40
2023-05-17T04:14:38.068Z,2.17
2023-05-17T04:17:09.911Z,2.19
2023-05-17T04:19:41.672Z,2.19
2023-05-17T04:22:13.660Z,2.06
2023-05-17T04:24:45.485Z,1.83
2023-05-17T04:27:17.463Z,2.17
2023-05-17T04:29:49.639Z,2.16
2023-05-17T04:32:21.314Z,2.14
2023-05-17T04:34:52.996Z,2.11
2023-05-17T04:37:24.693Z,1.88
2023-05-17T04:40:00.072Z,2.03
2023-05-17T04:42:34.415Z,2.03
2023-05-17T04:45:06.742Z,1.89
2023-05-17T04:47:38.534Z,1.98
2023-05-17T04:50:10.428Z,2.10
2023-05-17T04:52:42.209Z,1.92
2023-05-17T04:55:14.780Z,1.99
2023-05-17T04:57:48.091Z,1.78
2023-05-17T05:00:21.070Z,1.74
2023-05-17T05:02:59.119Z,1.97
2023-05-17T05:05:31.561Z,1.87
2023-05-17T05:08:03.747Z,1.89
2023-05-17T05:10:36.848Z,1.94
2023-05-17T05:13:08.904Z,1.93
2023-05-17T05:15:40.646Z,1.78
2023-05-17T05:18:12.836Z,1.78
2023-05-17T05:20:46.435Z,1.83
2023-05-17T05:23:18.884Z,1.88
2023-05-17T05:25:52.977Z,1.78
2023-05-17T05:28:24.658Z,1.84
2023-05-17T05:31:00.866Z,1.92
2023-05-17T05:33:39.171Z,1.93
2023-05-17T05:36:11.013Z,1.72
2023-05-17T05:38:42.742Z,1.86
2023-05-17T05:41:14.453Z,1.73
2023-05-17T05:43:46.578Z,1.71
2023-05-17T05:46:19.221Z,1.79
2023-05-17T05:48:51.054Z,1.73
2023-05-17T05:51:23.129Z,1.75
2023-05-17T05:53:56.104Z,1.54
2023-05-17T05:56:28.127Z,1.60
2023-05-17T05:59:00.035Z,1.60
2023-05-17T06:01:33.147Z,1.70
2023-05-17T06:04:05.036Z,1.78
2023-05-17T06:06:36.975Z,1.75
2023-05-17T06:09:08.921Z,1.71
2023-05-17T06:11:40.583Z,1.73
2023-05-17T06:14:12.376Z,1.75
2023-05-17T06:16:44.098Z,1.93
2023-05-17T06:19:15.966Z,1.76
2023-05-17T06:21:47.769Z,1.58
2023-05-17T06:24:19.407Z,1.59
2023-05-17T06:26:51.061Z,1.53
2023-05-17T06:29:22.812Z,1.81
2023-05-17T06:31:54.543Z,1.45
2023-05-17T06:34:26.210Z,1.53
2023-05-17T06:36:58.390Z,1.49
2023-05-17T06:39:29.971Z,1.66
2023-05-17T06:42:01.593Z,1.70
2023-05-17T06:44:38.876Z,1.55
2023-05-17T06:47:10.502Z,1.58
2023-05-17T06:49:42.136Z,1.54
2023-05-17T06:52:13.785Z,1.63
2023-05-17T06:54:45.508Z,1.64
2023-05-17T06:57:17.153Z,1.69
2023-05-17T06:59:48.815Z,1.64
2023-05-17T07:02:20.431Z,1.80
2023-05-17T07:04:52.134Z,1.77
2023-05-17T07:07:23.764Z,1.79
2023-05-17T07:09:58.049Z,1.71
2023-05-17T07:12:29.649Z,1.86
2023-05-17T07:15:01.342Z,1.75
2023-05-17T07:17:32.953Z,1.64
2023-05-17T07:20:05.214Z,1.72
2023-05-17T07:22:37.614Z,1.93
2023-05-17T07:25:10.054Z,1.71
2023-05-17T07:27:41.737Z,1.69
2023-05-17T07:30:13.618Z,1.67
2023-05-17T07:32:45.465Z,1.77
2023-05-17T07:35:18.207Z,1.66
2023-05-17T07:37:52.929Z,1.67
2023-05-17T07:40:24.626Z,1.77
2023-05-17T07:42:56.364Z,1.60
2023-05-17T07:45:28.725Z,1.75
2023-05-17T07:48:01.989Z,1.81
2023-05-17T07:50:33.852Z,1.64
2023-05-17T07:53:05.556Z,1.61
2023-05-17T07:55:37.318Z,1.74
2023-05-17T07:58:12.346Z,1.55
2023-05-17T08:00:44.336Z,1.57
2023-05-17T08:03:17.530Z,1.68
2023-05-17T08:05:49.325Z,1.76
2023-05-17T08:08:20.972Z,1.69
2023-05-17T08:10:52.948Z,1.76
2023-05-17T08:13:24.591Z,1.60
2023-05-17T08:16:01.642Z,1.66
2023-05-17T08:18:42.351Z,1.70
2023-05-17T08:21:14.152Z,1.94
2023-05-17T08:23:46.249Z,1.71
2023-05-17T08:26:17.929Z,1.82
2023-05-17T08:28:49.555Z,4.51
2023-05-17T08:31:21.283Z,6.20
2023-05-17T08:33:53.145Z,4.64
2023-05-17T08:36:25.371Z,1.66
2023-05-17T08:38:57.017Z,1.73
2023-05-17T08:41:29.430Z,1.74
2023-05-17T08:44:03.353Z,1.69
2023-05-17T08:46:35.718Z,1.92
2023-05-17T08:49:10.689Z,1.89
2023-05-17T08:51:45.329Z,2.10
2023-05-17T08:54:17.021Z,1.95
2023-05-17T08:56:50.938Z,1.92
2023-05-17T08:59:23.050Z,2.08
2023-05-17T09:01:55.764Z,2.19
2023-05-17T09:04:29.520Z,1.87
2023-05-17T09:07:01.156Z,2.05
2023-05-17T09:09:33.224Z,2.05
2023-05-17T09:12:05.270Z,1.98
2023-05-17T09:14:37.080Z,2.01
2023-05-17T09:17:08.695Z,2.02
2023-05-17T09:19:45.416Z,2.07
2023-05-17T09:22:20.305Z,2.04
2023-05-17T09:24:52.221Z,1.97
2023-05-17T09:27:23.925Z,2.07
2023-05-17T09:29:55.962Z,2.13
2023-05-17T09:32:27.891Z,2.05
2023-05-17T09:34:59.639Z,2.31
2023-05-17T09:37:31.504Z,2.52
2023-05-17T09:40:03.350Z,2.11
2023-05-17T09:42:35.456Z,1.94
2023-05-17T09:45:07.321Z,2.06
2023-05-17T09:47:39.032Z,2.05
2023-05-17T09:50:18.983Z,2.10
2023-05-17T09:52:50.674Z,2.10
2023-05-17T09:55:24.499Z,1.97
2023-05-17T09:58:03.251Z,2.23
2023-05-17T10:00:35.354Z,2.23
2023-05-17T10:03:08.858Z,1.90
2023-05-17T10:05:44.420Z,1.98
2023-05-17T10:08:20.302Z,2.22
2023-05-17T10:10:55.316Z,2.17
2023-05-17T10:13:33.592Z,1.98
2023-05-17T10:16:06.077Z,2.49
2023-05-17T10:18:40.022Z,2.32
2023-05-17T10:21:12.356Z,2.57
2023-05-17T10:23:45.393Z,2.16
2023-05-17T10:26:18.385Z,2.30
2023-05-17T10:28:51.765Z,2.39
2023-05-17T10:31:24.293Z,2.27
2023-05-17T10:33:56.315Z,2.21
2023-05-17T10:36:28.939Z,2.23
2023-05-17T10:39:02.179Z,2.33
2023-05-17T10:41:37.105Z,2.33
2023-05-17T10:44:13.818Z,2.07
2023-05-17T10:46:54.494Z,1.92
2023-05-17T10:49:38.686Z,2.01
2023-05-17T10:52:18.138Z,2.27
2023-05-17T10:54:50.153Z,2.01
2023-05-17T10:57:49.229Z,1.99
2023-05-17T11:00:24.150Z,1.93
2023-05-17T11:03:14.587Z,2.01
2023-05-17T11:06:12.950Z,2.07
2023-05-17T11:09:15.312Z,2.04
2023-05-17T11:12:09.840Z,1.87
2023-05-17T11:14:48.935Z,2.14
2023-05-17T11:17:27.161Z,1.95
2023-05-17T11:20:08.111Z,2.06
2023-05-17T11:22:42.605Z,1.94
2023-05-17T11:25:14.656Z,1.93
2023-05-17T11:27:50.222Z,2.04
2023-05-17T11:30:23.101Z,1.98
2023-05-17T11:32:58.841Z,1.99
2023-05-17T11:35:38.104Z,2.08
2023-05-17T11:38:21.529Z,1.96
2023-05-17T11:40:54.888Z,2.12
2023-05-17T11:43:27.270Z,2.06
2023-05-17T11:45:59.823Z,1.98
2023-05-17T11:48:32.665Z,2.15
2023-05-17T11:51:05.146Z,1.94
2023-05-17T11:53:37.732Z,2.07
2023-05-17T11:56:09.599Z,2.21
2023-05-17T11:58:42.271Z,2.17
2023-05-17T12:01:14.092Z,2.11
2023-05-17T12:03:45.678Z,2.06
2023-05-17T12:06:17.614Z,2.02
2023-05-17T12:08:49.369Z,1.89
2023-05-17T12:11:21.050Z,2.01
2023-05-17T12:13:52.769Z,2.04
2023-05-17T12:16:26.007Z,2.02
2023-05-17T12:18:57.817Z,2.12
2023-05-17T12:21:29.721Z,1.90
2023-05-17T12:24:01.361Z,2.02
2023-05-17T12:26:33.058Z,1.72
2023-05-17T12:29:04.686Z,2.05
2023-05-17T12:31:40.643Z,1.83
2023-05-17T12:34:13.515Z,2.12
2023-05-17T12:36:45.868Z,1.98
2023-05-17T12:39:17.857Z,2.13
2023-05-17T12:41:51.291Z,2.05
2023-05-17T12:44:23.038Z,2.09
2023-05-17T12:46:54.886Z,1.81
2023-05-17T12:49:26.962Z,1.86
2023-05-17T12:52:03.945Z,1.91
2023-05-17T12:54:35.763Z,2.00
2023-05-17T12:57:12.267Z,1.97
2023-05-17T12:59:48.795Z,2.01
2023-05-17T13:02:20.681Z,1.99
2023-05-17T13:04:52.470Z,2.06
2023-05-17T13:07:24.509Z,2.23
2023-05-17T13:09:56.188Z,2.20
2023-05-17T13:12:27.931Z,2.26
2023-05-17T13:14:59.527Z,2.23
2023-05-17T13:17:36.652Z,2.19
2023-05-17T13:20:10.450Z,1.98
2023-05-17T13:22:49.798Z,2.15
2023-05-17T13:25:21.466Z,2.26
2023-05-17T13:27:53.026Z,1.95
2023-05-17T13:30:24.673Z,2.13
2023-05-17T13:32:56.424Z,1.84
2023-05-17T13:35:28.203Z,1.94
2023-05-17T13:37:59.857Z,2.18
2023-05-17T13:40:31.377Z,1.99
2023-05-17T13:43:03.075Z,2.14
2023-05-17T13:45:34.914Z,2.11
2023-05-17T13:48:06.980Z,2.03
2023-05-17T13:50:38.721Z,1.94
2023-05-17T13:53:10.327Z,2.06
2023-05-17T13:55:42.470Z,2.13
2023-05-17T13:58:14.533Z,1.88
2023-05-17T14:00:46.278Z,2.09
2023-05-17T14:03:18.094Z,2.12
2023-05-17T14:05:49.835Z,2.06
2023-05-17T14:08:21.476Z,2.28
2023-05-17T14:10:53.363Z,2.00
2023-05-17T14:13:26.631Z,1.99
2023-05-17T14:15:58.379Z,2.11
2023-05-17T14:18:30.550Z,2.00
2023-05-17T14:21:02.340Z,2.18
2023-05-17T14:23:35.271Z,1.81
2023-05-17T14:26:06.939Z,2.10
2023-05-17T14:28:38.569Z,2.11
2023-05-17T14:31:10.784Z,2.05
2023-05-17T14:33:42.669Z,1.97
2023-05-17T14:36:14.474Z,2.18
2023-05-17T14:38:46.145Z,1.75
2023-05-17T14:41:17.773Z,1.97
2023-05-17T14:43:49.538Z,1.85
2023-05-17T14:46:21.251Z,1.92
2023-05-17T14:48:53.151Z,2.14
2023-05-17T14:51:24.865Z,2.13
2023-05-17T14:53:56.480Z,2.03
2023-05-17T14:56:28.082Z,2.11
2023-05-17T14:58:59.817Z,2.10
2023-05-17T15:01:31.499Z,2.11
2023-05-17T15:04:03.344Z,2.14
2023-05-17T15:06:35.048Z,2.11
2023-05-17T15:09:06.672Z,2.16
2023-05-17T15:11:38.553Z,2.00
2023-05-17T15:14:10.826Z,2.07
2023-05-17T15:16:42.405Z,2.14
2023-05-17T15:19:14.767Z,1.94
2023-05-17T15:21:46.443Z,2.06
2023-05-17T15:24:18.096Z,2.08
2023-05-17T15:26:49.707Z,2.15
2023-05-17T15:29:21.421Z,1.95
2023-05-17T15:31:53.114Z,2.04
2023-05-17T15:34:25.426Z,2.10
2023-05-17T15:36:57.375Z,2.11
2023-05-17T15:39:29.064Z,2.24
2023-05-17T15:42:00.804Z,2.02
2023-05-17T15:44:32.514Z,2.09
2023-05-17T15:47:04.390Z,2.18
2023-05-17T15:49:40.523Z,1.97
2023-05-17T15:52:12.417Z,2.10
2023-05-17T15:54:44.169Z,2.23
2023-05-17T15:57:15.980Z,2.05
2023-05-17T15:59:47.570Z,2.28
2023-05-17T16:02:19.276Z,1.91
2023-05-17T16:04:50.904Z,2.03
2023-05-17T16:07:22.464Z,2.11
2023-05-17T16:09:54.100Z,2.26
2023-05-17T16:12:25.848Z,2.13
2023-05-17T16:14:57.790Z,2.06
2023-05-17T16:17:29.521Z,2.21
2023-05-17T16:20:01.360Z,2.19
2023-05-17T16:22:33.225Z,2.17
2023-05-17T16:25:05.240Z,2.32
2023-05-17T16:27:36.899Z,2.36
2023-05-17T16:30:09.028Z,1.91
2023-05-17T16:32:41.856Z,2.08
2023-05-17T16:35:14.057Z,2.05
2023-05-17T16:37:45.672Z,2.33
2023-05-17T16:40:17.329Z,1.94
2023-05-17T16:42:48.918Z,2.15
2023-05-17T16:45:20.577Z,2.06
2023-05-17T16:47:52.316Z,1.93
2023-05-17T16:50:24.010Z,2.04
2023-05-17T16:52:55.719Z,2.13
2023-05-17T16:55:27.399Z,2.10
2023-05-17T16:57:58.991Z,2.10
2023-05-17T17:00:31.249Z,2.06
2023-05-17T17:03:04.155Z,2.19
2023-05-17T17:05:37.119Z,2.19
2023-05-17T17:08:08.862Z,2.41
2023-05-17T17:10:40.573Z,2.31
2023-05-17T17:13:12.152Z,2.03
2023-05-17T17:15:43.878Z,2.24
2023-05-17T17:18:15.550Z,2.23
2023-05-17T17:20:47.159Z,2.22
2023-05-17T17:23:18.811Z,2.23
2023-05-17T17:25:50.492Z,2.34
2023-05-17T17:28:22.209Z,2.03
2023-05-17T17:30:53.862Z,2.06
2023-05-17T17:33:25.548Z,2.19
2023-05-17T17:35:57.383Z,2.30
2023-05-17T17:38:29.070Z,2.14
2023-05-17T17:41:00.798Z,1.96
2023-05-17T17:43:32.456Z,2.20
2023-05-17T17:46:04.238Z,2.19
2023-05-17T17:48:36.289Z,1.99
2023-05-17T17:51:07.921Z,1.98
2023-05-17T17:53:39.803Z,2.10
2023-05-17T17:56:11.446Z,2.12
2023-05-17T17:58:43.140Z,2.13
2023-05-17T18:01:15.073Z,2.16
2023-05-17T18:03:46.808Z,2.03
2023-05-17T18:06:18.435Z,2.28
2023-05-17T18:08:50.176Z,2.42
2023-05-17T18:11:21.826Z,1.91
2023-05-17T18:13:53.586Z,1.89
2023-05-17T18:16:25.273Z,1.85
2023-05-17T18:18:56.849Z,1.95
2023-05-17T18:21:28.534Z,1.89
2023-05-17T18:24:00.563Z,1.86
2023-05-17T18:26:32.317Z,1.92
2023-05-17T18:29:03.955Z,1.75
2023-05-17T18:31:38.692Z,1.86
2023-05-17T18:34:10.383Z,1.94
2023-05-17T18:36:42.168Z,2.06
2023-05-17T18:39:13.833Z,1.79
2023-05-17T18:41:45.569Z,1.84
2023-05-17T18:44:19.210Z,1.82
2023-05-17T18:46:51.817Z,1.99
2023-05-17T18:49:23.485Z,2.33
2023-05-17T18:51:55.225Z,2.06
2023-05-17T18:54:26.852Z,2.27
2023-05-17T18:56:58.465Z,2.64
2023-05-17T18:59:30.113Z,2.12
2023-05-17T19:02:01.754Z,1.79
2023-05-17T19:04:33.573Z,1.80
2023-05-17T19:07:05.366Z,2.02
2023-05-17T19:09:37.009Z,1.99
2023-05-17T19:12:08.778Z,1.72
2023-05-17T19:14:40.426Z,2.09
2023-05-17T19:17:12.269Z,1.90
2023-05-17T19:19:43.899Z,1.84
2023-05-17T19:22:15.505Z,1.99
2023-05-17T19:24:47.172Z,1.82
2023-05-17T19:27:18.832Z,1.84
2023-05-17T19:29:50.511Z,1.64
2023-05-17T19:32:22.143Z,1.79
2023-05-17T19:34:53.796Z,1.81
2023-05-17T19:37:25.451Z,1.89
2023-05-17T19:39:58.579Z,1.78
2023-05-17T19:42:30.200Z,2.09
2023-05-17T19:45:01.860Z,2.06
2023-05-17T19:47:33.476Z,1.93
2023-05-17T19:50:05.498Z,2.10
2023-05-17T19:52:38.180Z,2.21
2023-05-17T19:55:09.765Z,2.17
2023-05-17T19:57:44.903Z,2.15
2023-05-17T20:00:17.352Z,2.13
2023-05-17T20:02:49.003Z,2.06
2023-05-17T20:05:21.531Z,2.19
2023-05-17T20:07:53.264Z,2.18
2023-05-17T20:10:24.984Z,2.05
2023-05-17T20:12:57.388Z,2.02
2023-05-17T20:15:29.188Z,2.51
2023-05-17T20:18:00.844Z,1.76
2023-05-17T20:20:32.722Z,2.05
2023-05-17T20:23:04.476Z,1.87
2023-05-17T20:25:36.252Z,1.89
2023-05-17T20:28:07.859Z,1.94
2023-05-17T20:30:43.965Z,1.83
2023-05-17T20:33:22.902Z,1.94
2023-05-17T20:35:54.653Z,1.98
2023-05-17T20:38:26.388Z,1.95
2023-05-17T20:40:58.103Z,2.04
2023-05-17T20:43:29.827Z,2.35
2023-05-17T20:46:01.639Z,2.07
2023-05-17T20:48:34.302Z,2.13
2023-05-17T20:51:06.213Z,1.93
2023-05-17T20:53:39.204Z,2.10
2023-05-17T20:56:10.801Z,2.06
2023-05-17T20:58:42.479Z,2.09
2023-05-17T21:01:14.303Z,2.19
2023-05-17T21:03:46.047Z,2.06
2023-05-17T21:06:17.729Z,2.11
2023-05-17T21:08:49.354Z,2.44
2023-05-17T21:11:21.306Z,2.37
2023-05-17T21:13:53.054Z,2.59
2023-05-17T21:16:24.897Z,2.38
2023-05-17T21:18:56.581Z,2.63
2023-05-17T21:21:28.249Z,2.73
2023-05-17T21:23:59.814Z,2.82
2023-05-17T21:26:31.633Z,3.03
2023-05-17T21:29:03.332Z,2.92
2023-05-17T21:31:35.126Z,2.81
2023-05-17T21:34:07.027Z,3.26
2023-05-17T21:36:38.685Z,3.20
2023-05-17T21:39:10.260Z,3.20
2023-05-17T21:41:41.940Z,3.13
2023-05-17T21:44:13.628Z,3.38
2023-05-17T21:46:45.432Z,3.23
2023-05-17T21:49:17.186Z,3.55
2023-05-17T21:51:48.857Z,3.81
2023-05-17T21:54:22.507Z,3.50
2023-05-17T21:56:54.177Z,3.53
2023-05-17T21:59:25.845Z,3.50
2023-05-17T22:01:57.447Z,3.68
2023-05-17T22:04:29.095Z,3.45
2023-05-17T22:07:00.639Z,3.71
2023-05-17T22:09:32.336Z,3.67
2023-05-17T22:12:04.401Z,3.80
2023-05-17T22:14:35.988Z,3.84
2023-05-17T22:17:07.593Z,3.62
2023-05-17T22:19:39.165Z,3.92
2023-05-17T22:22:11.406Z,3.74
2023-05-17T22:24:43.132Z,3.78
2023-05-17T22:27:14.815Z,3.62
2023-05-17T22:29:46.525Z,3.80
2023-05-17T22:32:18.106Z,3.84
2023-05-17T22:34:49.667Z,4.01
2023-05-17T22:37:21.253Z,3.69
2023-05-17T22:39:52.861Z,3.90
2023-05-17T22:42:24.528Z,4.16
2023-05-17T22:44:56.172Z,4.05
2023-05-17T22:47:27.800Z,4.11
2023-05-17T22:49:59.395Z,4.18
2023-05-17T22:52:31.078Z,4.11
2023-05-17T22:55:02.721Z,4.28
2023-05-17T22:57:34.439Z,4.20
2023-05-17T23:00:06.711Z,4.24
2023-05-17T23:02:38.357Z,4.22
2023-05-17T23:05:10.654Z,4.20
2023-05-17T23:07:42.433Z,4.63
2023-05-17T23:10:18.228Z,4.44
2023-05-17T23:12:52.085Z,4.67
2023-05-17T23:15:25.297Z,4.86
2023-05-17T23:20:28.677Z,4.58
2023-05-17T23:23:00.378Z,4.67
2023-05-17T23:25:32.077Z,4.91
2023-05-17T23:28:03.816Z,4.94
2023-05-17T23:30:35.504Z,4.69
2023-05-17T23:33:07.220Z,4.66
2023-05-17T23:35:38.836Z,4.93
2023-05-17T23:38:10.457Z,5.11
2023-05-17T23:40:42.096Z,5.03
2023-05-17T23:43:13.695Z,4.86
2023-05-17T23:45:45.274Z,4.89
2023-05-17T23:48:16.952Z,4.72
2023-05-17T23:50:48.513Z,5.27
2023-05-17T23:53:20.094Z,4.96
2023-05-17T23:55:51.766Z,4.81
2023-05-17T23:58:23.389Z,5.18
